<?xml version="1.0" encoding="UTF-8" standalone="no" ?>
<gpx xmlns="http://www.topografix.com/GPX/1/1" xmlns:xsi="http://www.w3.org/2001/XMLSchema-instance" xsi:schemaLocation="http://www.topografix.com/GPX/1/1 http://www.topografix.com/GPX/1/1/gpx.xsd" version="1.1" creator="VisuGPX - https://www.visugpx.com">
  <metadata>
    <name>La rando de Valérie</name>
    <desc><![CDATA[Les bords de Loire de Veauchette à Montrond les bains]]></desc>
  </metadata>
  <trk>
    <name><![CDATA[Veauchette-Montrond les Bains]]></name>
    <trkseg>
      <trkpt lat="45.56225" lon="4.2662">
        <ele>358</ele>
        <time>2017-04-07T20:45:54Z</time>
      </trkpt>
      <trkpt lat="45.56171" lon="4.26633">
        <ele>358</ele>
        <time>2017-04-07T20:46:13Z</time>
      </trkpt>
      <trkpt lat="45.5603" lon="4.26693">
        <ele>358.9</ele>
        <time>2017-04-07T20:46:18Z</time>
      </trkpt>
      <trkpt lat="45.56024" lon="4.26976">
        <ele>358</ele>
        <time>2017-04-07T20:46:34Z</time>
      </trkpt>
      <trkpt lat="45.56102" lon="4.27148">
        <ele>356</ele>
        <time>2017-04-07T20:46:52Z</time>
      </trkpt>
      <trkpt lat="45.56123" lon="4.27178">
        <ele>355.6</ele>
        <time>2017-04-07T20:47:06Z</time>
      </trkpt>
      <trkpt lat="45.56234" lon="4.27088">
        <ele>355.5</ele>
        <time>2017-04-07T20:47:24Z</time>
      </trkpt>
      <trkpt lat="45.56297" lon="4.27049">
        <ele>354.5</ele>
        <time>2017-04-07T20:47:34Z</time>
      </trkpt>
      <trkpt lat="45.56342" lon="4.26972">
        <ele>355.1</ele>
        <time>2017-04-07T20:47:49Z</time>
      </trkpt>
      <trkpt lat="45.56378" lon="4.26903">
        <ele>354.4</ele>
        <time>2017-04-07T20:48:02Z</time>
      </trkpt>
      <trkpt lat="45.56471" lon="4.26761">
        <ele>353.9</ele>
        <time>2017-04-07T20:48:20Z</time>
      </trkpt>
      <trkpt lat="45.56486" lon="4.2671">
        <ele>357.4</ele>
        <time>2017-04-07T20:48:28Z</time>
      </trkpt>
      <trkpt lat="45.56556" lon="4.2665">
        <ele>356.4</ele>
        <time>2017-04-07T20:48:40Z</time>
      </trkpt>
      <trkpt lat="45.56595" lon="4.26663">
        <ele>355.3</ele>
        <time>2017-04-07T20:48:42Z</time>
      </trkpt>
      <trkpt lat="45.56856" lon="4.26478">
        <ele>355.1</ele>
        <time>2017-04-07T20:48:52Z</time>
      </trkpt>
      <trkpt lat="45.56847" lon="4.26435">
        <ele>356.8</ele>
        <time>2017-04-07T20:49:03Z</time>
      </trkpt>
      <trkpt lat="45.57141" lon="4.26225">
        <ele>355.4</ele>
        <time>2017-04-07T20:49:13Z</time>
      </trkpt>
      <trkpt lat="45.57295" lon="4.26006">
        <ele>356.7</ele>
        <time>2017-04-07T20:49:30Z</time>
      </trkpt>
      <trkpt lat="45.57373" lon="4.25877">
        <ele>356.5</ele>
        <time>2017-04-07T20:49:43Z</time>
      </trkpt>
      <trkpt lat="45.57358" lon="4.2583">
        <ele>356.9</ele>
        <time>2017-04-07T20:49:49Z</time>
      </trkpt>
      <trkpt lat="45.5731" lon="4.25628">
        <ele>356</ele>
        <time>2017-04-07T20:49:59Z</time>
      </trkpt>
      <trkpt lat="45.57268" lon="4.25525">
        <ele>356</ele>
        <time>2017-04-07T20:50:19Z</time>
      </trkpt>
      <trkpt lat="45.57223" lon="4.2541">
        <ele>356</ele>
        <time>2017-04-07T20:50:29Z</time>
      </trkpt>
      <trkpt lat="45.57063" lon="4.25225">
        <ele>356</ele>
        <time>2017-04-07T20:50:32Z</time>
      </trkpt>
      <trkpt lat="45.56922" lon="4.25092">
        <ele>357</ele>
        <time>2017-04-07T20:50:52Z</time>
      </trkpt>
      <trkpt lat="45.56949" lon="4.24895">
        <ele>357.8</ele>
        <time>2017-04-07T20:51:04Z</time>
      </trkpt>
      <trkpt lat="45.57036" lon="4.24628">
        <ele>357</ele>
        <time>2017-04-07T20:51:21Z</time>
      </trkpt>
      <trkpt lat="45.57325" lon="4.24422">
        <ele>356</ele>
        <time>2017-04-07T20:51:24Z</time>
      </trkpt>
      <trkpt lat="45.57364" lon="4.24367">
        <ele>355.9</ele>
        <time>2017-04-07T20:51:31Z</time>
      </trkpt>
      <trkpt lat="45.5755" lon="4.24229">
        <ele>355.8</ele>
        <time>2017-04-07T20:51:37Z</time>
      </trkpt>
      <trkpt lat="45.57586" lon="4.24122">
        <ele>355.9</ele>
        <time>2017-04-07T20:51:53Z</time>
      </trkpt>
      <trkpt lat="45.57616" lon="4.23929">
        <ele>355.9</ele>
        <time>2017-04-07T20:52:05Z</time>
      </trkpt>
      <trkpt lat="45.57796" lon="4.23796">
        <ele>355.1</ele>
        <time>2017-04-07T20:52:09Z</time>
      </trkpt>
      <trkpt lat="45.57826" lon="4.23581">
        <ele>356.1</ele>
        <time>2017-04-07T20:52:19Z</time>
      </trkpt>
      <trkpt lat="45.57901" lon="4.23517">
        <ele>357.8</ele>
        <time>2017-04-07T20:52:32Z</time>
      </trkpt>
      <trkpt lat="45.57928" lon="4.23457">
        <ele>360</ele>
        <time>2017-04-07T20:52:35Z</time>
      </trkpt>
      <trkpt lat="45.58064" lon="4.23534">
        <ele>358.3</ele>
        <time>2017-04-07T20:52:38Z</time>
      </trkpt>
      <trkpt lat="45.58196" lon="4.23543">
        <ele>359</ele>
        <time>2017-04-07T20:52:48Z</time>
      </trkpt>
      <trkpt lat="45.58403" lon="4.23448">
        <ele>359.6</ele>
        <time>2017-04-07T20:53:01Z</time>
      </trkpt>
      <trkpt lat="45.58478" lon="4.23088">
        <ele>361.8</ele>
        <time>2017-04-07T20:53:06Z</time>
      </trkpt>
      <trkpt lat="45.58622" lon="4.23028">
        <ele>362</ele>
        <time>2017-04-07T20:53:11Z</time>
      </trkpt>
      <trkpt lat="45.58643" lon="4.22993">
        <ele>363</ele>
        <time>2017-04-07T20:53:20Z</time>
      </trkpt>
      <trkpt lat="45.58965" lon="4.22556">
        <ele>360.7</ele>
        <time>2017-04-07T20:53:26Z</time>
      </trkpt>
      <trkpt lat="45.59076" lon="4.22586">
        <ele>361.7</ele>
        <time>2017-04-07T20:53:38Z</time>
      </trkpt>
      <trkpt lat="45.59421" lon="4.22624">
        <ele>360.4</ele>
        <time>2017-04-07T20:53:49Z</time>
      </trkpt>
      <trkpt lat="45.597" lon="4.22672">
        <ele>359.8</ele>
        <time>2017-04-07T20:54:02Z</time>
      </trkpt>
      <trkpt lat="45.59872" lon="4.22672">
        <ele>359.6</ele>
        <time>2017-04-07T20:54:08Z</time>
      </trkpt>
      <trkpt lat="45.60256" lon="4.22633">
        <ele>357</ele>
        <time>2017-04-07T20:54:19Z</time>
      </trkpt>
      <trkpt lat="45.60478" lon="4.22672">
        <ele>357</ele>
        <time>2017-04-07T20:54:35Z</time>
      </trkpt>
      <trkpt lat="45.60529" lon="4.22744">
        <ele>355.2</ele>
        <time>2017-04-07T20:54:54Z</time>
      </trkpt>
      <trkpt lat="45.60625" lon="4.22972">
        <ele>349</ele>
        <time>2017-04-07T20:54:56Z</time>
      </trkpt>
      <trkpt lat="45.60661" lon="4.22998">
        <ele>348.9</ele>
        <time>2017-04-07T20:55:09Z</time>
      </trkpt>
      <trkpt lat="45.61012" lon="4.22835">
        <ele>348</ele>
        <time>2017-04-07T20:55:20Z</time>
      </trkpt>
      <trkpt lat="45.61084" lon="4.2277">
        <ele>348</ele>
        <time>2017-04-07T20:55:32Z</time>
      </trkpt>
      <trkpt lat="45.61069" lon="4.22693">
        <ele>348</ele>
        <time>2017-04-07T20:55:50Z</time>
      </trkpt>
      <trkpt lat="45.6119" lon="4.22749">
        <ele>347</ele>
        <time>2017-04-07T20:55:54Z</time>
      </trkpt>
      <trkpt lat="45.61463" lon="4.22719">
        <ele>347</ele>
        <time>2017-04-07T20:56:04Z</time>
      </trkpt>
      <trkpt lat="45.61769" lon="4.2265">
        <ele>346</ele>
        <time>2017-04-07T20:56:12Z</time>
      </trkpt>
      <trkpt lat="45.6197" lon="4.22483">
        <ele>346</ele>
        <time>2017-04-07T20:56:29Z</time>
      </trkpt>
      <trkpt lat="45.61904" lon="4.21852">
        <ele>346.5</ele>
        <time>2017-04-07T20:56:47Z</time>
      </trkpt>
      <trkpt lat="45.61913" lon="4.21581">
        <ele>347</ele>
        <time>2017-04-07T20:57:06Z</time>
      </trkpt>
      <trkpt lat="45.62027" lon="4.21822">
        <ele>346.4</ele>
        <time>2017-04-07T20:57:17Z</time>
      </trkpt>
      <trkpt lat="45.62135" lon="4.21796">
        <ele>345.7</ele>
        <time>2017-04-07T20:57:24Z</time>
      </trkpt>
      <trkpt lat="45.6221" lon="4.21848">
        <ele>345.4</ele>
        <time>2017-04-07T20:57:35Z</time>
      </trkpt>
      <trkpt lat="45.62294" lon="4.21843">
        <ele>344.7</ele>
        <time>2017-04-07T20:57:50Z</time>
      </trkpt>
      <trkpt lat="45.6251" lon="4.22002">
        <ele>344.7</ele>
        <time>2017-04-07T20:57:57Z</time>
      </trkpt>
      <trkpt lat="45.62558" lon="4.21942">
        <ele>345</ele>
        <time>2017-04-07T20:58:02Z</time>
      </trkpt>
      <trkpt lat="45.62639" lon="4.21599">
        <ele>347</ele>
        <time>2017-04-07T20:58:15Z</time>
      </trkpt>
      <trkpt lat="45.62864" lon="4.21607">
        <ele>347</ele>
        <time>2017-04-07T20:58:27Z</time>
      </trkpt>
      <trkpt lat="45.63086" lon="4.21612">
        <ele>345.1</ele>
        <time>2017-04-07T20:58:33Z</time>
      </trkpt>
      <trkpt lat="45.63222" lon="4.2168">
        <ele>345</ele>
        <time>2017-04-07T20:58:35Z</time>
      </trkpt>
      <trkpt lat="45.63471" lon="4.21684">
        <ele>346</ele>
        <time>2017-04-07T20:58:39Z</time>
      </trkpt>
      <trkpt lat="45.63546" lon="4.22036">
        <ele>343.7</ele>
        <time>2017-04-07T20:58:58Z</time>
      </trkpt>
      <trkpt lat="45.63654" lon="4.22049">
        <ele>343.6</ele>
        <time>2017-04-07T20:59:04Z</time>
      </trkpt>
      <trkpt lat="45.63729" lon="4.22015">
        <ele>343.1</ele>
        <time>2017-04-07T20:59:11Z</time>
      </trkpt>
      <trkpt lat="45.63969" lon="4.22277">
        <ele>343.9</ele>
        <time>2017-04-07T20:59:28Z</time>
      </trkpt>
      <trkpt lat="45.6387" lon="4.21818">
        <ele>343.6</ele>
        <time>2017-04-07T20:59:36Z</time>
      </trkpt>
      <trkpt lat="45.63906" lon="4.2186">
        <ele>343.8</ele>
        <time>2017-04-07T20:59:52Z</time>
      </trkpt>
      <trkpt lat="45.64149" lon="4.22852">
        <ele>346.7</ele>
        <time>2017-04-07T20:59:58Z</time>
      </trkpt>
      <trkpt lat="45.6417" lon="4.22946">
        <ele>350</ele>
        <time>2017-04-07T21:00:11Z</time>
      </trkpt>
      <trkpt lat="45.64086" lon="4.22993">
        <ele>349.9</ele>
        <time>2017-04-07T21:00:30Z</time>
      </trkpt>
      <trkpt lat="45.64017" lon="4.23071">
        <ele>347.6</ele>
        <time>2017-04-07T21:00:43Z</time>
      </trkpt>
      <trkpt lat="45.6396" lon="4.23212">
        <ele>347.1</ele>
        <time>2017-04-07T21:01:02Z</time>
      </trkpt>
      <trkpt lat="45.63921" lon="4.2329">
        <ele>347.1</ele>
        <time>2017-04-07T21:01:19Z</time>
      </trkpt>
      <trkpt lat="45.63903" lon="4.23332">
        <ele>347.4</ele>
        <time>2017-04-07T21:01:39Z</time>
      </trkpt>
      <trkpt lat="45.63831" lon="4.23242">
        <ele>342</ele>
        <time>2017-04-07T21:01:54Z</time>
      </trkpt>
      <trkpt lat="45.6378" lon="4.23238">
        <ele>340.7</ele>
        <time>2017-04-07T21:02:14Z</time>
      </trkpt>
      <trkpt lat="45.63735" lon="4.23277">
        <ele>342</ele>
        <time>2017-04-07T21:02:19Z</time>
      </trkpt>
      <trkpt lat="45.63669" lon="4.23238">
        <ele>342</ele>
        <time>2017-04-07T21:02:26Z</time>
      </trkpt>
      <trkpt lat="45.63594" lon="4.23238">
        <ele>343</ele>
        <time>2017-04-07T21:02:29Z</time>
      </trkpt>
      <trkpt lat="45.63585" lon="4.23161">
        <ele>344</ele>
        <time>2017-04-07T21:02:32Z</time>
      </trkpt>
      <trkpt lat="45.63729" lon="4.23062">
        <ele>342.7</ele>
        <time>2017-04-07T21:02:51Z</time>
      </trkpt>
      <trkpt lat="45.63708" lon="4.22933">
        <ele>344</ele>
        <time>2017-04-07T21:02:57Z</time>
      </trkpt>
      <trkpt lat="45.63585" lon="4.22809">
        <ele>344</ele>
        <time>2017-04-07T21:03:10Z</time>
      </trkpt>
      <trkpt lat="45.63495" lon="4.22852">
        <ele>344</ele>
        <time>2017-04-07T21:03:18Z</time>
      </trkpt>
      <trkpt lat="45.6336" lon="4.22963">
        <ele>344</ele>
        <time>2017-04-07T21:03:31Z</time>
      </trkpt>
      <trkpt lat="45.63291" lon="4.23036">
        <ele>344.7</ele>
        <time>2017-04-07T21:03:43Z</time>
      </trkpt>
      <trkpt lat="45.63204" lon="4.23049">
        <ele>344.8</ele>
        <time>2017-04-07T21:03:49Z</time>
      </trkpt>
      <trkpt lat="45.63071" lon="4.23281">
        <ele>345</ele>
        <time>2017-04-07T21:03:59Z</time>
      </trkpt>
      <trkpt lat="45.6296" lon="4.23534">
        <ele>345</ele>
        <time>2017-04-07T21:04:13Z</time>
      </trkpt>
      <trkpt lat="45.62972" lon="4.23646">
        <ele>345</ele>
        <time>2017-04-07T21:04:15Z</time>
      </trkpt>
      <trkpt lat="45.62912" lon="4.23689">
        <ele>344.3</ele>
        <time>2017-04-07T21:04:27Z</time>
      </trkpt>
      <trkpt lat="45.62834" lon="4.23659">
        <ele>345</ele>
        <time>2017-04-07T21:04:30Z</time>
      </trkpt>
      <trkpt lat="45.62714" lon="4.23581">
        <ele>345.9</ele>
        <time>2017-04-07T21:04:35Z</time>
      </trkpt>
      <trkpt lat="45.6251" lon="4.23577">
        <ele>345.1</ele>
        <time>2017-04-07T21:04:43Z</time>
      </trkpt>
      <trkpt lat="45.62294" lon="4.23671">
        <ele>345.2</ele>
        <time>2017-04-07T21:05:03Z</time>
      </trkpt>
      <trkpt lat="45.62198" lon="4.23727">
        <ele>344.7</ele>
        <time>2017-04-07T21:05:09Z</time>
      </trkpt>
      <trkpt lat="45.62132" lon="4.238">
        <ele>343.2</ele>
        <time>2017-04-07T21:05:27Z</time>
      </trkpt>
      <trkpt lat="45.62084" lon="4.23805">
        <ele>345</ele>
        <time>2017-04-07T21:05:44Z</time>
      </trkpt>
      <trkpt lat="45.61988" lon="4.23865">
        <ele>345.2</ele>
        <time>2017-04-07T21:06:04Z</time>
      </trkpt>
      <trkpt lat="45.61892" lon="4.23959">
        <ele>344.4</ele>
        <time>2017-04-07T21:06:06Z</time>
      </trkpt>
      <trkpt lat="45.61886" lon="4.24058">
        <ele>345.1</ele>
        <time>2017-04-07T21:06:15Z</time>
      </trkpt>
      <trkpt lat="45.61862" lon="4.24208">
        <ele>347</ele>
        <time>2017-04-07T21:06:26Z</time>
      </trkpt>
      <trkpt lat="45.61877" lon="4.24465">
        <ele>347</ele>
        <time>2017-04-07T21:06:45Z</time>
      </trkpt>
      <trkpt lat="45.61874" lon="4.24607">
        <ele>347.5</ele>
        <time>2017-04-07T21:06:57Z</time>
      </trkpt>
      <trkpt lat="45.61805" lon="4.248">
        <ele>348.2</ele>
        <time>2017-04-07T21:07:14Z</time>
      </trkpt>
      <trkpt lat="45.61736" lon="4.24882">
        <ele>348</ele>
        <time>2017-04-07T21:07:21Z</time>
      </trkpt>
      <trkpt lat="45.61697" lon="4.24985">
        <ele>348</ele>
        <time>2017-04-07T21:07:33Z</time>
      </trkpt>
      <trkpt lat="45.61664" lon="4.24989">
        <ele>348.5</ele>
        <time>2017-04-07T21:07:47Z</time>
      </trkpt>
      <trkpt lat="45.61607" lon="4.24899">
        <ele>348</ele>
        <time>2017-04-07T21:07:50Z</time>
      </trkpt>
      <trkpt lat="45.61568" lon="4.2486">
        <ele>348.4</ele>
        <time>2017-04-07T21:08:10Z</time>
      </trkpt>
      <trkpt lat="45.61535" lon="4.24719">
        <ele>347.3</ele>
        <time>2017-04-07T21:08:16Z</time>
      </trkpt>
      <trkpt lat="45.6149" lon="4.2441">
        <ele>347.3</ele>
        <time>2017-04-07T21:08:20Z</time>
      </trkpt>
      <trkpt lat="45.61364" lon="4.24358">
        <ele>346.1</ele>
        <time>2017-04-07T21:08:28Z</time>
      </trkpt>
      <trkpt lat="45.61214" lon="4.24277">
        <ele>346.6</ele>
        <time>2017-04-07T21:08:32Z</time>
      </trkpt>
      <trkpt lat="45.61057" lon="4.24071">
        <ele>347.4</ele>
        <time>2017-04-07T21:08:41Z</time>
      </trkpt>
      <trkpt lat="45.60883" lon="4.238">
        <ele>347.5</ele>
        <time>2017-04-07T21:08:48Z</time>
      </trkpt>
      <trkpt lat="45.60709" lon="4.23611">
        <ele>347.5</ele>
        <time>2017-04-07T21:09:08Z</time>
      </trkpt>
      <trkpt lat="45.60472" lon="4.23508">
        <ele>347.6</ele>
        <time>2017-04-07T21:09:20Z</time>
      </trkpt>
      <trkpt lat="45.60205" lon="4.23393">
        <ele>348.9</ele>
        <time>2017-04-07T21:09:33Z</time>
      </trkpt>
      <trkpt lat="45.60064" lon="4.23393">
        <ele>349</ele>
        <time>2017-04-07T21:09:40Z</time>
      </trkpt>
      <trkpt lat="45.59896" lon="4.23371">
        <ele>349</ele>
        <time>2017-04-07T21:09:44Z</time>
      </trkpt>
      <trkpt lat="45.59778" lon="4.23393">
        <ele>348.9</ele>
        <time>2017-04-07T21:09:46Z</time>
      </trkpt>
      <trkpt lat="45.59604" lon="4.2353">
        <ele>349</ele>
        <time>2017-04-07T21:10:05Z</time>
      </trkpt>
      <trkpt lat="45.59424" lon="4.23573">
        <ele>350</ele>
        <time>2017-04-07T21:10:07Z</time>
      </trkpt>
      <trkpt lat="45.59286" lon="4.23564">
        <ele>351</ele>
        <time>2017-04-07T21:10:12Z</time>
      </trkpt>
      <trkpt lat="45.59154" lon="4.23611">
        <ele>352.1</ele>
        <time>2017-04-07T21:10:28Z</time>
      </trkpt>
      <trkpt lat="45.5913" lon="4.23573">
        <ele>350.1</ele>
        <time>2017-04-07T21:10:41Z</time>
      </trkpt>
      <trkpt lat="45.59103" lon="4.23427">
        <ele>350</ele>
        <time>2017-04-07T21:10:43Z</time>
      </trkpt>
      <trkpt lat="45.59058" lon="4.23238">
        <ele>349.5</ele>
        <time>2017-04-07T21:10:47Z</time>
      </trkpt>
      <trkpt lat="45.58881" lon="4.2341">
        <ele>350.4</ele>
        <time>2017-04-07T21:10:52Z</time>
      </trkpt>
      <trkpt lat="45.58739" lon="4.23526">
        <ele>349.6</ele>
        <time>2017-04-07T21:11:07Z</time>
      </trkpt>
      <trkpt lat="45.58661" lon="4.23637">
        <ele>349.7</ele>
        <time>2017-04-07T21:11:25Z</time>
      </trkpt>
      <trkpt lat="45.58616" lon="4.23693">
        <ele>350.6</ele>
        <time>2017-04-07T21:11:35Z</time>
      </trkpt>
      <trkpt lat="45.58577" lon="4.23817">
        <ele>350.4</ele>
        <time>2017-04-07T21:11:43Z</time>
      </trkpt>
      <trkpt lat="45.58556" lon="4.24071">
        <ele>350.5</ele>
        <time>2017-04-07T21:11:55Z</time>
      </trkpt>
      <trkpt lat="45.58529" lon="4.24345">
        <ele>350.9</ele>
        <time>2017-04-07T21:12:08Z</time>
      </trkpt>
      <trkpt lat="45.5849" lon="4.24474">
        <ele>351.6</ele>
        <time>2017-04-07T21:12:12Z</time>
      </trkpt>
      <trkpt lat="45.58538" lon="4.24543">
        <ele>353</ele>
        <time>2017-04-07T21:12:22Z</time>
      </trkpt>
      <trkpt lat="45.58517" lon="4.24581">
        <ele>353</ele>
        <time>2017-04-07T21:12:27Z</time>
      </trkpt>
      <trkpt lat="45.58406" lon="4.24465">
        <ele>348</ele>
        <time>2017-04-07T21:12:40Z</time>
      </trkpt>
      <trkpt lat="45.58337" lon="4.24418">
        <ele>354.8</ele>
        <time>2017-04-07T21:12:48Z</time>
      </trkpt>
      <trkpt lat="45.58283" lon="4.24375">
        <ele>352.8</ele>
        <time>2017-04-07T21:12:55Z</time>
      </trkpt>
      <trkpt lat="45.5825" lon="4.24247">
        <ele>353</ele>
        <time>2017-04-07T21:13:09Z</time>
      </trkpt>
      <trkpt lat="45.58172" lon="4.24392">
        <ele>353.5</ele>
        <time>2017-04-07T21:13:15Z</time>
      </trkpt>
      <trkpt lat="45.5804" lon="4.24731">
        <ele>352.9</ele>
        <time>2017-04-07T21:13:21Z</time>
      </trkpt>
      <trkpt lat="45.5782" lon="4.25118">
        <ele>354.7</ele>
        <time>2017-04-07T21:13:41Z</time>
      </trkpt>
      <trkpt lat="45.57613" lon="4.25457">
        <ele>355.9</ele>
        <time>2017-04-07T21:13:58Z</time>
      </trkpt>
      <trkpt lat="45.57394" lon="4.25843">
        <ele>356.3</ele>
        <time>2017-04-07T21:14:14Z</time>
      </trkpt>
      <trkpt lat="45.57262" lon="4.25457">
        <ele>356</ele>
        <time>2017-04-07T21:14:34Z</time>
      </trkpt>
      <trkpt lat="45.57226" lon="4.25375">
        <ele>356</ele>
        <time>2017-04-07T21:14:50Z</time>
      </trkpt>
      <trkpt lat="45.57108" lon="4.25242">
        <ele>356</ele>
        <time>2017-04-07T21:15:04Z</time>
      </trkpt>
      <trkpt lat="45.57006" lon="4.25122">
        <ele>356.5</ele>
        <time>2017-04-07T21:15:17Z</time>
      </trkpt>
      <trkpt lat="45.56955" lon="4.25096">
        <ele>357</ele>
        <time>2017-04-07T21:15:21Z</time>
      </trkpt>
      <trkpt lat="45.56862" lon="4.25062">
        <ele>357.8</ele>
        <time>2017-04-07T21:15:33Z</time>
      </trkpt>
      <trkpt lat="45.56718" lon="4.25049">
        <ele>358.1</ele>
        <time>2017-04-07T21:15:38Z</time>
      </trkpt>
      <trkpt lat="45.56547" lon="4.25053">
        <ele>358</ele>
        <time>2017-04-07T21:15:49Z</time>
      </trkpt>
      <trkpt lat="45.56559" lon="4.25371">
        <ele>358</ele>
        <time>2017-04-07T21:16:01Z</time>
      </trkpt>
      <trkpt lat="45.56529" lon="4.25384">
        <ele>357.2</ele>
        <time>2017-04-07T21:16:14Z</time>
      </trkpt>
      <trkpt lat="45.56541" lon="4.25517">
        <ele>356.8</ele>
        <time>2017-04-07T21:16:22Z</time>
      </trkpt>
      <trkpt lat="45.56483" lon="4.25551">
        <ele>357.9</ele>
        <time>2017-04-07T21:16:41Z</time>
      </trkpt>
      <trkpt lat="45.56375" lon="4.2562">
        <ele>357.3</ele>
        <time>2017-04-07T21:17:00Z</time>
      </trkpt>
      <trkpt lat="45.56324" lon="4.25641">
        <ele>357.7</ele>
        <time>2017-04-07T21:17:14Z</time>
      </trkpt>
      <trkpt lat="45.56306" lon="4.25457">
        <ele>358</ele>
        <time>2017-04-07T21:17:23Z</time>
      </trkpt>
      <trkpt lat="45.56273" lon="4.25379">
        <ele>357.9</ele>
        <time>2017-04-07T21:17:29Z</time>
      </trkpt>
      <trkpt lat="45.5612" lon="4.25371">
        <ele>358.6</ele>
        <time>2017-04-07T21:17:38Z</time>
      </trkpt>
      <trkpt lat="45.56114" lon="4.25504">
        <ele>358.8</ele>
        <time>2017-04-07T21:17:45Z</time>
      </trkpt>
      <trkpt lat="45.56117" lon="4.25611">
        <ele>358.6</ele>
        <time>2017-04-07T21:17:57Z</time>
      </trkpt>
      <trkpt lat="45.56147" lon="4.25749">
        <ele>358.7</ele>
        <time>2017-04-07T21:18:17Z</time>
      </trkpt>
      <trkpt lat="45.56186" lon="4.25963">
        <ele>359</ele>
        <time>2017-04-07T21:18:31Z</time>
      </trkpt>
      <trkpt lat="45.56216" lon="4.26255">
        <ele>358.4</ele>
        <time>2017-04-07T21:18:37Z</time>
      </trkpt>
      <trkpt lat="45.56237" lon="4.26512">
        <ele>358</ele>
        <time>2017-04-07T21:18:45Z</time>
      </trkpt>
      <trkpt lat="45.56207" lon="4.26603">
        <ele>358</ele>
        <time>2017-04-07T21:18:58Z</time>
      </trkpt>
    </trkseg>
  </trk>
</gpx>